createdAt,value
2018-06-30T00:00:43.231Z,18.06
2018-06-30T00:01:42.979Z,17.91
2018-06-30T00:02:42.989Z,17.97
2018-06-30T00:03:42.991Z,17.98
2018-06-30T00:04:43.042Z,17.97
2018-06-30T00:05:43.048Z,17.86
2018-06-30T00:06:43.070Z,17.88
2018-06-30T00:07:43.054Z,18.03
2018-06-30T00:08:43.075Z,17.90
2018-06-30T00:09:43.080Z,17.84
2018-06-30T00:10:43.087Z,17.87
2018-06-30T00:11:43.134Z,17.78
2018-06-30T00:12:43.104Z,17.87
2018-06-30T00:13:43.118Z,17.80
2018-06-30T00:14:43.129Z,18.00
2018-06-30T00:15:43.139Z,17.88
2018-06-30T00:16:43.181Z,17.91
2018-06-30T00:17:43.172Z,17.91
2018-06-30T00:18:43.254Z,17.82
2018-06-30T00:19:43.185Z,17.87
2018-06-30T00:20:43.204Z,17.84
2018-06-30T00:21:43.206Z,17.88
2018-06-30T00:22:43.220Z,17.88
2018-06-30T00:23:43.266Z,17.94
2018-06-30T00:24:43.286Z,17.91
2018-06-30T00:25:43.252Z,17.90
2018-06-30T00:26:43.263Z,17.93
2018-06-30T00:27:43.297Z,17.94
2018-06-30T00:28:43.285Z,17.94
2018-06-30T00:29:43.330Z,17.86
2018-06-30T00:30:43.315Z,17.75
2018-06-30T00:31:43.327Z,17.78
2018-06-30T00:32:43.355Z,17.86
2018-06-30T00:33:43.372Z,17.82
2018-06-30T00:34:43.414Z,17.71
2018-06-30T00:35:43.371Z,17.84
2018-06-30T00:36:43.378Z,17.76
2018-06-30T00:37:43.388Z,17.78
2018-06-30T00:38:43.413Z,17.86
2018-06-30T00:39:43.444Z,17.84
2018-06-30T00:40:43.456Z,17.66
2018-06-30T00:41:43.451Z,17.72
2018-06-30T00:42:43.467Z,17.72
2018-06-30T00:43:43.507Z,17.60
2018-06-30T00:44:43.492Z,17.59
2018-06-30T00:45:43.498Z,17.57
2018-06-30T00:46:43.505Z,17.71
2018-06-30T00:47:43.518Z,17.76
2018-06-30T00:48:43.550Z,17.71
2018-06-30T00:49:43.540Z,17.56
2018-06-30T00:50:43.556Z,17.60
2018-06-30T00:51:43.588Z,17.54
2018-06-30T00:52:43.575Z,17.63
2018-06-30T00:53:43.607Z,17.63
2018-06-30T00:54:43.607Z,17.69
2018-06-30T00:55:43.636Z,17.76
2018-06-30T00:56:43.621Z,17.65
2018-06-30T00:57:43.660Z,17.63
2018-06-30T00:58:43.649Z,17.69
2018-06-30T00:59:43.694Z,17.57
2018-06-30T01:00:43.672Z,17.56
2018-06-30T01:01:43.701Z,17.71
2018-06-30T01:02:43.714Z,17.65
2018-06-30T01:03:43.713Z,17.47
2018-06-30T01:04:43.733Z,17.46
2018-06-30T01:05:43.758Z,17.41
2018-06-30T01:06:43.752Z,17.38
2018-06-30T01:07:43.756Z,17.46
2018-06-30T01:08:43.804Z,17.39
2018-06-30T01:09:43.771Z,17.53
2018-06-30T01:10:43.791Z,17.59
2018-06-30T01:11:43.818Z,17.56
2018-06-30T01:12:43.817Z,17.46
2018-06-30T01:13:43.852Z,17.46
2018-06-30T01:14:43.830Z,17.31
2018-06-30T01:15:43.890Z,17.38
2018-06-30T01:16:43.851Z,17.46
2018-06-30T01:17:43.899Z,17.31
2018-06-30T01:18:43.884Z,17.42
2018-06-30T01:19:43.900Z,17.32
2018-06-30T01:20:43.930Z,17.28
2018-06-30T01:21:43.963Z,17.23
2018-06-30T01:22:43.917Z,17.34
2018-06-30T01:23:43.926Z,17.32
2018-06-30T01:24:43.974Z,17.35
2018-06-30T01:25:43.966Z,17.34
2018-06-30T01:26:43.991Z,17.39
2018-06-30T01:27:44.005Z,17.49
2018-06-30T01:28:44.020Z,17.46
2018-06-30T01:29:44.015Z,17.49
2018-06-30T01:30:44.018Z,17.28
2018-06-30T01:31:44.030Z,17.32
2018-06-30T01:32:44.085Z,17.30
2018-06-30T01:33:44.043Z,17.28
2018-06-30T01:34:44.058Z,17.24
2018-06-30T01:35:44.086Z,17.22
2018-06-30T01:36:44.109Z,17.27
2018-06-30T01:37:44.130Z,17.12
2018-06-30T01:38:44.123Z,17.22
2018-06-30T01:39:44.116Z,17.28
2018-06-30T01:40:44.142Z,17.39
2018-06-30T01:41:44.149Z,17.34
2018-06-30T01:42:44.190Z,17.19
2018-06-30T01:43:44.168Z,17.17
2018-06-30T01:44:44.182Z,17.01
2018-06-30T01:45:44.219Z,17.13
2018-06-30T01:46:44.227Z,17.27
2018-06-30T01:47:44.224Z,17.14
2018-06-30T01:48:44.235Z,17.09
2018-06-30T01:49:44.237Z,17.07
2018-06-30T01:50:44.276Z,17.10
2018-06-30T01:51:44.263Z,17.14
2018-06-30T01:52:44.269Z,17.12
2018-06-30T01:53:44.285Z,17.24
2018-06-30T01:54:44.299Z,17.17
2018-06-30T01:55:44.326Z,17.04
2018-06-30T02:00:18.049Z,17.10
2018-06-30T02:01:17.963Z,17.07
2018-06-30T02:02:17.982Z,17.02
2018-06-30T02:03:18.034Z,16.99
2018-06-30T02:04:17.999Z,17.07
2018-06-30T02:05:18.004Z,17.10
2018-06-30T02:06:18.015Z,17.10
2018-06-30T02:07:18.031Z,17.09
2018-06-30T02:08:18.074Z,17.07
2018-06-30T02:09:18.080Z,16.91
2018-06-30T02:10:18.078Z,16.98
2018-06-30T02:11:18.086Z,16.97
2018-06-30T02:12:18.086Z,17.01
2018-06-30T02:13:18.141Z,16.94
2018-06-30T02:14:18.131Z,16.92
2018-06-30T02:15:18.141Z,16.98
2018-06-30T02:16:18.123Z,16.97
2018-06-30T02:17:18.149Z,16.84
2018-06-30T02:18:18.161Z,16.80
2018-06-30T02:19:18.181Z,16.68
2018-06-30T02:20:18.210Z,16.69
2018-06-30T02:21:18.186Z,16.66
2018-06-30T02:22:18.201Z,16.62
2018-06-30T02:23:18.240Z,16.69
2018-06-30T02:24:18.217Z,16.68
2018-06-30T02:25:18.245Z,16.80
2018-06-30T02:26:18.252Z,16.72
2018-06-30T02:27:18.279Z,16.66
2018-06-30T02:28:18.292Z,16.76
2018-06-30T02:29:18.273Z,16.74
2018-06-30T02:30:18.298Z,16.89
2018-06-30T02:31:18.337Z,16.82
2018-06-30T02:32:18.315Z,16.82
2018-06-30T02:33:18.315Z,16.76
2018-06-30T02:34:18.334Z,16.59
2018-06-30T02:35:18.366Z,16.64
2018-06-30T02:36:18.396Z,16.73
2018-06-30T02:37:18.441Z,16.76
2018-06-30T02:38:18.427Z,16.73
2018-06-30T02:39:18.385Z,16.77
2018-06-30T02:40:18.407Z,16.68
2018-06-30T02:41:18.413Z,16.69
2018-06-30T02:42:18.433Z,16.86
2018-06-30T02:43:18.482Z,16.73
2018-06-30T02:44:18.448Z,16.72
2018-06-30T02:45:18.468Z,16.83
2018-06-30T02:46:18.497Z,16.76
2018-06-30T02:47:18.485Z,16.73
2018-06-30T02:48:18.523Z,16.72
2018-06-30T02:49:18.542Z,16.74
2018-06-30T02:50:18.504Z,16.72
2018-06-30T02:51:18.534Z,16.76
2018-06-30T02:52:18.544Z,16.65
2018-06-30T02:53:18.547Z,16.62
2018-06-30T02:54:18.600Z,16.62
2018-06-30T02:55:18.578Z,16.69
2018-06-30T02:56:18.579Z,16.65
2018-06-30T02:57:18.584Z,16.58
2018-06-30T02:58:18.597Z,16.61
2018-06-30T02:59:18.652Z,16.73
2018-06-30T03:00:18.657Z,16.82
2018-06-30T03:01:18.643Z,16.66
2018-06-30T03:02:18.659Z,16.83
2018-06-30T03:03:18.666Z,16.74
2018-06-30T03:04:18.716Z,16.73
2018-06-30T03:05:18.692Z,16.73
2018-06-30T03:06:18.693Z,16.76
2018-06-30T03:07:18.712Z,16.57
2018-06-30T03:08:18.717Z,16.55
2018-06-30T03:09:18.763Z,16.55
2018-06-30T03:10:18.794Z,16.55
2018-06-30T03:11:18.776Z,16.58
2018-06-30T03:12:18.760Z,16.50
2018-06-30T03:13:18.774Z,16.51
2018-06-30T03:14:18.775Z,16.50
2018-06-30T03:15:18.846Z,16.55
2018-06-30T03:16:18.851Z,16.62
2018-06-30T03:17:18.821Z,16.62
2018-06-30T03:18:18.828Z,16.68
2018-06-30T03:19:18.834Z,16.68
2018-06-30T03:20:18.849Z,16.64
2018-06-30T03:21:18.901Z,16.69
2018-06-30T03:22:18.896Z,16.76
2018-06-30T03:23:18.907Z,16.68
2018-06-30T03:24:18.904Z,16.69
2018-06-30T03:25:18.917Z,16.77
2018-06-30T03:26:18.966Z,16.79
2018-06-30T03:27:18.937Z,16.65
2018-06-30T03:28:18.945Z,16.74
2018-06-30T03:29:19.007Z,16.77
2018-06-30T03:30:18.957Z,16.87
2018-06-30T03:31:18.969Z,16.83
2018-06-30T03:32:18.983Z,16.87
2018-06-30T03:33:19.029Z,16.94
2018-06-30T03:34:19.033Z,17.04
2018-06-30T03:35:19.052Z,17.14
2018-06-30T03:36:19.051Z,17.05
2018-06-30T03:37:19.045Z,17.16
2018-06-30T03:38:19.054Z,17.28
2018-06-30T03:39:19.085Z,17.30
2018-06-30T03:40:19.069Z,17.34
2018-06-30T03:41:19.096Z,17.32
2018-06-30T03:42:19.101Z,17.47
2018-06-30T03:43:19.116Z,17.27
2018-06-30T03:44:19.155Z,17.42
2018-06-30T03:45:19.126Z,17.42
2018-06-30T03:46:19.209Z,17.49
2018-06-30T03:47:19.147Z,17.65
2018-06-30T03:48:19.175Z,17.73
2018-06-30T03:49:19.212Z,17.71
2018-06-30T03:50:19.223Z,17.76
2018-06-30T03:51:19.233Z,17.86
2018-06-30T03:52:19.223Z,17.84
2018-06-30T03:53:19.234Z,17.91
2018-06-30T03:54:19.268Z,17.94
2018-06-30T03:55:19.280Z,18.05
2018-06-30T03:56:19.308Z,18.11
2018-06-30T03:57:19.291Z,18.05
2018-06-30T03:58:19.306Z,18.21
2018-06-30T03:59:19.325Z,18.08
2018-06-30T04:00:19.315Z,18.08
2018-06-30T04:01:19.381Z,18.12
2018-06-30T04:02:19.350Z,18.08
2018-06-30T04:03:19.347Z,18.18
2018-06-30T04:04:19.360Z,18.31
2018-06-30T04:05:19.374Z,18.33
2018-06-30T04:06:19.422Z,18.41
2018-06-30T04:07:19.401Z,18.45
2018-06-30T04:08:19.442Z,18.49
2018-06-30T04:09:19.451Z,18.52
2018-06-30T04:10:19.456Z,18.57
2018-06-30T04:11:19.447Z,18.60
2018-06-30T04:12:19.464Z,18.55
2018-06-30T04:13:19.502Z,18.63
2018-06-30T04:14:19.545Z,18.71
2018-06-30T04:15:19.503Z,18.67
2018-06-30T04:16:19.509Z,18.71
2018-06-30T04:17:19.530Z,18.71
2018-06-30T04:18:19.540Z,18.74
2018-06-30T04:19:19.577Z,18.76
2018-06-30T04:20:19.566Z,18.73
2018-06-30T04:21:19.582Z,18.81
2018-06-30T04:22:19.579Z,18.81
2018-06-30T04:23:19.597Z,18.86
2018-06-30T04:24:19.652Z,18.83
2018-06-30T04:25:19.609Z,18.96
2018-06-30T04:26:19.635Z,18.98
2018-06-30T04:27:19.635Z,19.20
2018-06-30T04:28:19.661Z,19.22
2018-06-30T04:29:19.716Z,19.22
2018-06-30T04:30:19.685Z,19.35
2018-06-30T04:31:19.701Z,19.37
2018-06-30T04:32:19.729Z,19.45
2018-06-30T04:33:19.717Z,19.49
2018-06-30T04:34:19.754Z,19.39
2018-06-30T04:35:19.782Z,19.42
2018-06-30T04:36:19.769Z,19.63
2018-06-30T04:37:19.762Z,19.75
2018-06-30T04:38:19.791Z,19.85
2018-06-30T04:39:19.793Z,19.82
2018-06-30T04:40:19.824Z,19.87
2018-06-30T04:41:19.840Z,19.93
2018-06-30T04:42:19.834Z,19.90
2018-06-30T04:43:19.852Z,20.12
2018-06-30T04:44:19.857Z,20.12
2018-06-30T04:45:19.908Z,20.21
2018-06-30T04:46:19.953Z,20.19
2018-06-30T04:47:19.924Z,20.30
2018-06-30T04:48:19.975Z,20.36
2018-06-30T04:49:19.940Z,20.46
2018-06-30T04:50:19.952Z,20.56
2018-06-30T04:51:19.977Z,20.56
2018-06-30T04:52:20.024Z,20.66
2018-06-30T04:53:19.975Z,20.70
2018-06-30T04:54:20.035Z,20.75
2018-06-30T04:55:20.007Z,20.66
2018-06-30T04:56:20.036Z,20.64
2018-06-30T04:57:20.062Z,20.44
2018-06-30T04:58:20.094Z,20.42
2018-06-30T04:59:20.068Z,20.36
2018-06-30T05:00:20.070Z,20.19
2018-06-30T05:01:20.089Z,20.27
2018-06-30T05:02:20.157Z,20.39
2018-06-30T05:03:20.130Z,20.42
2018-06-30T05:04:20.130Z,20.39
2018-06-30T05:05:20.224Z,20.21
2018-06-30T05:06:20.170Z,20.40
2018-06-30T05:07:20.176Z,20.52
2018-06-30T05:08:20.181Z,20.46
2018-06-30T05:09:20.226Z,20.60
2018-06-30T05:10:20.249Z,20.55
2018-06-30T05:11:20.242Z,20.70
2018-06-30T05:12:20.247Z,20.66
2018-06-30T05:13:20.284Z,20.66
2018-06-30T05:14:20.278Z,20.89
2018-06-30T05:15:20.323Z,20.71
2018-06-30T05:16:20.290Z,20.85
2018-06-30T05:17:20.348Z,20.86
2018-06-30T05:18:20.349Z,20.98
2018-06-30T05:19:20.344Z,21.01
2018-06-30T05:20:20.358Z,20.71
2018-06-30T05:21:20.504Z,20.95
2018-06-30T05:22:20.436Z,20.86
2018-06-30T05:23:20.413Z,20.74
2018-06-30T05:24:20.438Z,20.92
2018-06-30T05:25:20.429Z,21.04
2018-06-30T05:26:20.432Z,21.07
2018-06-30T05:27:20.488Z,21.14
2018-06-30T05:28:20.526Z,21.19
2018-06-30T05:29:20.509Z,21.28
2018-06-30T05:30:20.508Z,21.44
2018-06-30T05:31:20.520Z,21.32
2018-06-30T05:32:20.531Z,21.62
2018-06-30T05:33:20.559Z,21.70
2018-06-30T05:34:20.597Z,21.77
2018-06-30T05:35:20.586Z,21.99
2018-06-30T05:36:20.606Z,22.00
2018-06-30T05:37:20.625Z,22.22
2018-06-30T05:38:20.635Z,22.22
2018-06-30T05:39:20.702Z,22.18
2018-06-30T05:40:20.643Z,22.34
2018-06-30T05:41:20.701Z,22.51
2018-06-30T05:42:20.673Z,22.41
2018-06-30T05:43:20.704Z,22.41
2018-06-30T05:44:20.769Z,22.51
2018-06-30T05:45:20.741Z,22.59
2018-06-30T05:46:20.744Z,22.65
2018-06-30T05:47:20.757Z,22.53
2018-06-30T05:48:20.763Z,22.40
2018-06-30T05:49:20.824Z,22.22
2018-06-30T05:50:20.812Z,22.12
2018-06-30T05:51:20.814Z,22.06
2018-06-30T05:52:20.895Z,21.66
2018-06-30T05:53:20.910Z,21.60
2018-06-30T05:54:20.911Z,21.69
2018-06-30T05:55:20.928Z,21.60
2018-06-30T05:56:20.957Z,21.68
2018-06-30T05:57:20.979Z,21.60
2018-06-30T05:58:21.032Z,21.66
2018-06-30T05:59:21.133Z,21.47
2018-06-30T06:00:21.035Z,20.96
2018-06-30T06:01:21.062Z,20.59
2018-06-30T06:02:20.990Z,20.32
2018-06-30T06:03:21.023Z,20.29
2018-06-30T06:04:21.015Z,20.49
2018-06-30T06:05:21.054Z,20.67
2018-06-30T06:06:21.050Z,20.75
2018-06-30T06:07:21.056Z,20.67
2018-06-30T06:08:21.105Z,20.48
2018-06-30T06:09:21.175Z,20.42
2018-06-30T06:10:21.084Z,20.36
2018-06-30T06:11:21.110Z,20.04
2018-06-30T06:12:21.124Z,20.15
2018-06-30T06:13:21.136Z,19.77
2018-06-30T06:14:21.210Z,19.89
2018-06-30T06:15:21.185Z,19.60
2018-06-30T06:16:21.233Z,19.64
2018-06-30T06:17:21.207Z,19.42
2018-06-30T06:18:21.233Z,19.59
2018-06-30T06:19:21.238Z,19.77
2018-06-30T06:20:21.268Z,19.56
2018-06-30T06:21:21.266Z,19.32
2018-06-30T06:22:21.263Z,19.39
2018-06-30T06:23:21.269Z,19.16
2018-06-30T06:24:21.288Z,19.26
2018-06-30T06:25:21.314Z,19.32
2018-06-30T06:26:21.340Z,19.23
2018-06-30T06:27:21.342Z,19.16
2018-06-30T06:28:21.356Z,19.16
2018-06-30T06:29:21.354Z,19.20
2018-06-30T06:30:21.370Z,19.24
2018-06-30T06:31:21.429Z,19.27
2018-06-30T06:32:21.390Z,19.16
2018-06-30T06:33:21.392Z,19.00
2018-06-30T06:34:21.413Z,19.16
2018-06-30T06:35:21.417Z,19.07
2018-06-30T06:36:21.481Z,18.88
2018-06-30T06:37:21.465Z,19.05
2018-06-30T06:38:21.502Z,19.00
2018-06-30T06:39:21.486Z,18.86
2018-06-30T06:40:21.495Z,18.96
2018-06-30T06:41:21.558Z,19.04
2018-06-30T06:42:21.553Z,19.15
2018-06-30T06:43:21.522Z,18.97
2018-06-30T06:44:21.534Z,19.01
2018-06-30T06:45:21.565Z,18.92
2018-06-30T06:46:21.595Z,19.04
2018-06-30T06:47:21.621Z,18.97
2018-06-30T06:48:21.599Z,19.12
2018-06-30T06:49:21.614Z,18.89
2018-06-30T06:50:21.611Z,18.96
2018-06-30T06:51:21.624Z,19.08
2018-06-30T06:52:21.737Z,19.08
2018-06-30T06:53:21.688Z,19.07
2018-06-30T06:54:21.655Z,19.15
2018-06-30T06:55:21.689Z,18.98
2018-06-30T06:56:21.709Z,19.04
2018-06-30T06:57:21.723Z,19.17
2018-06-30T06:58:21.733Z,19.17
2018-06-30T06:59:21.728Z,19.30
2018-06-30T07:00:21.742Z,19.22
2018-06-30T07:01:21.753Z,19.22
2018-06-30T07:02:21.771Z,19.08
2018-06-30T07:03:21.797Z,19.04
2018-06-30T07:04:21.812Z,19.08
2018-06-30T07:05:21.821Z,19.09
2018-06-30T07:06:21.816Z,19.08
2018-06-30T07:07:22.063Z,19.08
2018-06-30T07:08:21.880Z,19.16
2018-06-30T07:09:21.853Z,19.15
2018-06-30T07:10:21.848Z,18.92
2018-06-30T07:11:21.865Z,18.82
2018-06-30T07:12:21.885Z,18.70
2018-06-30T07:13:21.932Z,18.76
2018-06-30T07:14:21.931Z,18.82
2018-06-30T07:15:21.940Z,18.88
2018-06-30T07:16:21.949Z,18.81
2018-06-30T07:17:21.991Z,18.82
2018-06-30T07:18:21.955Z,18.81
2018-06-30T07:19:22.009Z,18.81
2018-06-30T07:20:21.992Z,18.85
2018-06-30T07:25:12.018Z,19.05
2018-06-30T07:26:11.987Z,19.09
2018-06-30T07:27:11.996Z,19.15
2018-06-30T07:29:55.323Z,19.22
2018-06-30T07:33:42.174Z,19.20
2018-06-30T07:42:12.342Z,19.32
2018-06-30T07:43:12.345Z,19.30
2018-06-30T07:44:12.343Z,19.35
2018-06-30T07:45:12.329Z,19.38
2018-06-30T07:46:12.337Z,19.29
2018-06-30T07:47:12.400Z,19.34
2018-06-30T07:48:12.395Z,19.37
2018-06-30T07:49:12.469Z,19.37
2018-06-30T07:50:12.456Z,19.42
2018-06-30T07:51:12.428Z,19.48
2018-06-30T07:52:12.435Z,19.45
2018-06-30T07:53:12.438Z,19.63
2018-06-30T07:54:12.447Z,19.60
2018-06-30T07:55:12.477Z,19.64
2018-06-30T07:56:12.499Z,19.66
2018-06-30T07:57:12.515Z,19.62
2018-06-30T07:58:12.648Z,19.75
2018-06-30T07:59:12.507Z,19.64
2018-06-30T08:00:12.533Z,19.71
2018-06-30T08:01:12.525Z,19.77
2018-06-30T08:02:12.548Z,19.75
2018-06-30T08:03:12.584Z,19.66
2018-06-30T08:04:12.571Z,19.64
2018-06-30T08:05:12.569Z,19.67
2018-06-30T08:06:12.583Z,19.67
2018-06-30T08:07:12.620Z,19.72
2018-06-30T08:08:12.634Z,19.74
2018-06-30T08:09:12.679Z,19.64
2018-06-30T08:10:12.698Z,19.62
2018-06-30T08:11:12.678Z,19.74
2018-06-30T08:12:12.666Z,19.77
2018-06-30T08:13:12.683Z,19.74
2018-06-30T08:14:12.741Z,19.77
2018-06-30T08:15:12.694Z,19.79
2018-06-30T08:16:12.728Z,19.82
2018-06-30T08:17:12.724Z,19.97
2018-06-30T08:18:12.751Z,19.90
2018-06-30T08:19:12.794Z,19.87
2018-06-30T08:20:12.788Z,19.79
2018-06-30T08:21:12.869Z,19.77
2018-06-30T08:22:12.940Z,19.75
2018-06-30T08:23:12.799Z,19.67
2018-06-30T08:24:12.830Z,19.71
2018-06-30T08:25:12.856Z,19.72
2018-06-30T08:26:12.853Z,19.79
2018-06-30T08:27:12.874Z,19.79
2018-06-30T08:28:12.885Z,19.70
2018-06-30T08:29:12.913Z,19.78
2018-06-30T08:30:12.900Z,19.85
2018-06-30T08:31:12.900Z,19.71
2018-06-30T08:32:12.919Z,19.84
2018-06-30T08:33:12.979Z,19.89
2018-06-30T08:34:12.933Z,19.89
2018-06-30T08:35:12.987Z,19.90
2018-06-30T08:36:13.016Z,19.85
2018-06-30T08:37:12.981Z,19.77
2018-06-30T08:38:13.044Z,19.93
2018-06-30T08:39:13.179Z,19.90
2018-06-30T08:40:13.021Z,19.96
2018-06-30T08:41:13.082Z,19.90
2018-06-30T08:42:13.037Z,19.99
2018-06-30T08:43:13.065Z,20.07
2018-06-30T08:44:13.140Z,19.99
2018-06-30T08:45:13.077Z,19.90
2018-06-30T08:46:13.106Z,19.93
2018-06-30T08:47:13.132Z,19.99
2018-06-30T08:48:13.136Z,19.93
2018-06-30T08:49:13.187Z,20.00
2018-06-30T08:50:13.150Z,19.99
2018-06-30T08:51:13.209Z,19.89
2018-06-30T08:52:13.172Z,19.92
2018-06-30T08:53:13.183Z,19.92
2018-06-30T08:54:13.228Z,19.72
2018-06-30T08:55:13.252Z,19.74
2018-06-30T08:56:13.240Z,19.84
2018-06-30T08:57:13.251Z,19.82
2018-06-30T08:58:13.246Z,19.85
2018-06-30T08:59:13.300Z,19.90
2018-06-30T09:00:13.287Z,19.82
2018-06-30T09:01:13.345Z,19.92
2018-06-30T09:02:13.307Z,19.97
2018-06-30T09:03:13.345Z,19.96
2018-06-30T09:04:13.336Z,19.90
2018-06-30T09:05:13.366Z,19.97
2018-06-30T09:06:13.470Z,20.12
2018-06-30T09:07:13.373Z,20.11
2018-06-30T09:08:13.432Z,19.93
2018-06-30T09:09:13.420Z,19.99
2018-06-30T09:10:13.472Z,20.07
2018-06-30T09:11:13.407Z,20.10
2018-06-30T09:12:13.509Z,20.17
2018-06-30T09:13:13.469Z,20.11
2018-06-30T09:14:13.462Z,20.11
2018-06-30T09:15:13.521Z,20.15
2018-06-30T09:16:13.523Z,20.11
2018-06-30T09:17:13.533Z,20.17
2018-06-30T09:18:13.517Z,20.19
2018-06-30T09:19:13.596Z,20.33
2018-06-30T09:20:13.634Z,20.34
2018-06-30T09:21:13.573Z,20.34
2018-06-30T09:22:13.617Z,20.19
2018-06-30T09:23:13.598Z,20.08
2018-06-30T09:24:13.676Z,20.14
2018-06-30T09:25:13.635Z,20.10
2018-06-30T09:26:13.612Z,20.17
2018-06-30T09:27:13.653Z,20.17
2018-06-30T09:28:13.640Z,20.11
2018-06-30T09:29:13.698Z,20.24
2018-06-30T09:30:13.722Z,20.11
2018-06-30T09:31:13.695Z,20.18
2018-06-30T09:32:13.684Z,20.18
2018-06-30T09:33:13.754Z,20.29
2018-06-30T09:34:13.719Z,20.21
2018-06-30T09:35:13.736Z,20.21
2018-06-30T09:36:13.741Z,20.21
2018-06-30T09:37:13.751Z,20.17
2018-06-30T09:38:13.804Z,20.34
2018-06-30T09:39:14.926Z,20.36
2018-06-30T09:40:13.797Z,20.33
2018-06-30T09:41:13.856Z,20.29
2018-06-30T09:42:13.813Z,20.18
2018-06-30T09:43:13.909Z,20.26
2018-06-30T09:44:13.902Z,20.40
2018-06-30T09:45:13.911Z,20.33
2018-06-30T09:46:13.936Z,20.29
2018-06-30T09:47:13.904Z,20.32
2018-06-30T09:48:13.926Z,20.33
2018-06-30T09:49:13.928Z,20.36
2018-06-30T09:50:13.977Z,20.34
2018-06-30T09:51:13.940Z,20.22
2018-06-30T09:52:13.947Z,20.26
2018-06-30T09:53:14.000Z,20.30
2018-06-30T09:54:14.042Z,20.48
2018-06-30T09:55:14.020Z,20.52
2018-06-30T09:56:14.019Z,20.58
2018-06-30T09:57:14.264Z,20.49
2018-06-30T09:58:14.023Z,20.46
2018-06-30T09:59:14.037Z,20.50
2018-06-30T10:00:14.071Z,20.50
2018-06-30T10:01:14.111Z,20.39
2018-06-30T10:02:14.083Z,20.48
2018-06-30T10:03:14.143Z,20.44
2018-06-30T10:04:14.117Z,20.40
2018-06-30T10:05:14.143Z,20.48
2018-06-30T10:06:14.124Z,20.48
2018-06-30T10:07:14.141Z,20.53
2018-06-30T10:08:14.223Z,20.63
2018-06-30T10:09:14.233Z,20.56
2018-06-30T10:10:14.176Z,20.64
2018-06-30T10:11:14.185Z,20.64
2018-06-30T10:12:14.235Z,20.73
2018-06-30T10:13:14.263Z,20.71
2018-06-30T10:14:14.272Z,20.64
2018-06-30T10:15:14.245Z,20.64
2018-06-30T10:16:14.287Z,20.60
2018-06-30T10:17:14.287Z,20.64
2018-06-30T10:18:14.291Z,20.63
2018-06-30T10:19:14.462Z,20.55
2018-06-30T10:20:14.324Z,20.59
2018-06-30T10:21:14.387Z,20.70
2018-06-30T10:22:14.361Z,20.70
2018-06-30T10:23:14.356Z,20.66
2018-06-30T10:24:14.378Z,20.63
2018-06-30T10:25:14.381Z,20.59
2018-06-30T10:26:14.398Z,20.53
2018-06-30T10:27:14.449Z,20.52
2018-06-30T10:28:14.415Z,20.60
2018-06-30T10:29:14.578Z,20.60
2018-06-30T10:30:14.471Z,20.58
2018-06-30T10:31:14.602Z,20.63
2018-06-30T10:32:14.554Z,20.63
2018-06-30T10:33:14.578Z,20.52
2018-06-30T10:34:14.506Z,20.58
2018-06-30T10:35:14.520Z,20.46
2018-06-30T10:36:14.530Z,20.49
2018-06-30T10:37:14.578Z,20.59
2018-06-30T10:38:14.586Z,20.66
2018-06-30T10:39:14.569Z,20.63
2018-06-30T10:40:14.591Z,20.64
2018-06-30T10:41:14.633Z,20.60
2018-06-30T10:42:14.642Z,20.68
2018-06-30T10:43:14.657Z,20.77
2018-06-30T10:44:14.685Z,20.75
2018-06-30T10:45:14.655Z,20.80
2018-06-30T10:46:14.674Z,20.75
2018-06-30T10:47:14.687Z,20.80
2018-06-30T10:48:14.705Z,20.78
2018-06-30T10:49:14.744Z,20.78
2018-06-30T10:50:14.719Z,20.78
2018-06-30T10:51:14.831Z,20.90
2018-06-30T10:52:14.800Z,20.92
2018-06-30T10:53:14.766Z,21.08
2018-06-30T10:54:14.791Z,21.00
2018-06-30T10:55:14.814Z,21.01
2018-06-30T10:56:14.805Z,20.93
2018-06-30T10:57:14.819Z,20.92
2018-06-30T10:58:14.855Z,21.01
2018-06-30T10:59:14.833Z,20.95
2018-06-30T11:00:14.923Z,21.05
2018-06-30T11:01:14.850Z,20.95
2018-06-30T11:02:14.890Z,20.95
2018-06-30T11:03:14.893Z,20.93
2018-06-30T11:04:14.945Z,21.01
2018-06-30T11:05:15.010Z,21.01
2018-06-30T11:06:14.939Z,21.07
2018-06-30T11:07:14.931Z,21.17
2018-06-30T11:08:14.976Z,21.26
2018-06-30T11:09:14.970Z,21.17
2018-06-30T11:10:15.011Z,21.20
2018-06-30T11:11:15.056Z,21.05
2018-06-30T11:12:15.009Z,21.05
2018-06-30T11:13:15.027Z,21.03
2018-06-30T11:14:15.055Z,21.04
2018-06-30T11:15:15.064Z,21.13
2018-06-30T11:16:15.105Z,21.08
2018-06-30T11:17:15.073Z,21.25
2018-06-30T11:18:15.071Z,21.19
2018-06-30T11:19:15.084Z,21.20
2018-06-30T11:20:15.136Z,21.20
2018-06-30T11:21:15.148Z,21.22
2018-06-30T11:22:15.293Z,21.26
2018-06-30T11:23:15.300Z,21.22
2018-06-30T11:24:15.171Z,21.23
2018-06-30T11:25:15.162Z,21.22
2018-06-30T11:26:15.244Z,21.22
2018-06-30T11:27:15.228Z,21.17
2018-06-30T11:28:15.251Z,21.20
2018-06-30T11:29:15.226Z,21.29
2018-06-30T11:30:15.272Z,21.33
2018-06-30T11:31:15.264Z,21.40
2018-06-30T11:32:15.269Z,21.50
2018-06-30T11:33:15.325Z,21.48
2018-06-30T11:34:15.297Z,21.43
2018-06-30T11:35:15.312Z,21.44
2018-06-30T11:36:15.333Z,21.47
2018-06-30T11:37:15.343Z,21.54
2018-06-30T11:38:15.374Z,21.50
2018-06-30T11:39:15.363Z,21.48
2018-06-30T11:40:15.382Z,21.50
2018-06-30T11:41:15.385Z,21.56
2018-06-30T11:42:15.394Z,21.41
2018-06-30T11:43:15.459Z,21.54
2018-06-30T11:44:15.420Z,21.56
2018-06-30T11:45:15.447Z,21.51
2018-06-30T11:46:15.454Z,21.47
2018-06-30T11:47:15.478Z,21.43
2018-06-30T11:48:15.519Z,21.30
2018-06-30T11:49:15.538Z,21.29
2018-06-30T11:50:15.526Z,21.30
2018-06-30T11:51:15.552Z,21.37
2018-06-30T11:52:15.569Z,21.44
2018-06-30T11:53:15.554Z,21.56
2018-06-30T11:54:15.587Z,21.38
2018-06-30T11:55:15.602Z,21.32
2018-06-30T11:56:15.621Z,21.32
2018-06-30T11:57:15.600Z,21.48
2018-06-30T11:58:15.622Z,21.30
2018-06-30T11:59:15.679Z,21.30
2018-06-30T12:00:15.670Z,21.29
2018-06-30T12:01:15.677Z,21.22
2018-06-30T12:02:15.681Z,21.28
2018-06-30T12:03:15.701Z,21.28
2018-06-30T12:04:15.720Z,21.23
2018-06-30T12:05:15.707Z,21.38
2018-06-30T12:06:15.731Z,21.32
2018-06-30T12:07:15.787Z,21.35
2018-06-30T12:08:15.767Z,21.28
2018-06-30T12:09:15.798Z,21.43
2018-06-30T12:10:15.800Z,21.41
2018-06-30T12:11:15.812Z,21.37
2018-06-30T12:12:15.806Z,21.35
2018-06-30T12:13:15.816Z,21.44
2018-06-30T12:14:15.829Z,21.26
2018-06-30T12:15:15.873Z,21.38
2018-06-30T12:16:15.844Z,21.33
2018-06-30T12:17:15.877Z,21.35
2018-06-30T12:18:15.892Z,21.37
2018-06-30T12:19:15.947Z,21.47
2018-06-30T12:20:15.914Z,21.47
2018-06-30T12:21:15.964Z,21.43
2018-06-30T12:22:15.935Z,21.50
2018-06-30T12:23:15.946Z,21.37
2018-06-30T12:24:16.004Z,21.38
2018-06-30T12:25:16.040Z,21.43
2018-06-30T12:26:16.002Z,21.51
2018-06-30T12:27:16.059Z,21.45
2018-06-30T12:28:16.021Z,21.40
2018-06-30T12:29:16.049Z,21.35
2018-06-30T12:30:16.065Z,21.30
2018-06-30T12:31:16.079Z,21.23
2018-06-30T12:32:16.162Z,21.25
2018-06-30T12:33:16.134Z,21.32
2018-06-30T12:34:16.106Z,21.44
2018-06-30T12:35:16.129Z,21.30
2018-06-30T12:36:16.144Z,21.37
2018-06-30T12:37:16.168Z,21.48
2018-06-30T12:38:16.149Z,21.47
2018-06-30T12:39:16.179Z,21.54
2018-06-30T12:40:16.212Z,21.41
2018-06-30T12:41:16.212Z,21.40
2018-06-30T12:42:16.236Z,21.47
2018-06-30T12:43:16.228Z,21.48
2018-06-30T12:44:16.285Z,21.47
2018-06-30T12:45:16.249Z,21.58
2018-06-30T12:46:16.251Z,21.50
2018-06-30T12:47:16.266Z,21.56
2018-06-30T12:48:16.299Z,21.58
2018-06-30T12:49:16.331Z,21.66
2018-06-30T15:32:47.755Z,21.37
2018-06-30T15:33:47.744Z,21.40
2018-06-30T15:34:47.729Z,21.41
2018-06-30T15:35:47.816Z,21.43
2018-06-30T15:36:47.744Z,21.44
2018-06-30T15:37:47.792Z,21.41
2018-06-30T15:38:47.770Z,21.40
2018-06-30T15:39:47.791Z,21.38
2018-06-30T15:40:47.860Z,21.43
2018-06-30T15:41:47.823Z,21.43
2018-06-30T15:42:47.870Z,21.58
2018-06-30T15:43:47.833Z,21.51
2018-06-30T15:44:47.868Z,21.47
2018-06-30T15:45:47.863Z,21.44
2018-06-30T15:46:47.873Z,21.43
2018-06-30T15:47:47.919Z,21.53
2018-06-30T15:48:47.914Z,21.58
2018-06-30T15:49:47.927Z,21.59
2018-06-30T15:50:47.964Z,21.60
2018-06-30T15:51:47.949Z,21.65
2018-06-30T15:52:47.965Z,21.65
2018-06-30T15:53:48.021Z,21.62
2018-06-30T15:54:47.991Z,21.58